createdAt,value
2022-08-21T00:02:35.072Z,101103.53
2022-08-21T00:07:36.960Z,101098.84
2022-08-21T00:12:39.464Z,101090.75
2022-08-21T00:17:41.829Z,101090.28
2022-08-21T00:22:44.286Z,101093.44
2022-08-21T00:27:47.680Z,101080.50
2022-08-21T00:32:49.782Z,101077.56
2022-08-21T00:37:51.726Z,101073.91
2022-08-21T00:42:54.036Z,101082.31
2022-08-21T00:47:56.495Z,101082.22
2022-08-21T00:52:59.775Z,101069.38
2022-08-21T00:58:05.698Z,101073.03
2022-08-21T01:03:14.850Z,101074.38
2022-08-21T01:08:18.407Z,101077.09
2022-08-21T01:13:20.892Z,101075.97
2022-08-21T01:18:25.011Z,101080.50
2022-08-21T01:23:27.108Z,101087.84
2022-08-21T01:28:32.290Z,101086.84
2022-08-21T01:33:34.939Z,101087.84
2022-08-21T01:38:37.147Z,101090.88
2022-08-21T01:43:39.917Z,101088.81
2022-08-21T01:48:42.769Z,101077.78
2022-08-21T01:53:44.982Z,101073.78
2022-08-21T01:58:48.896Z,101074.38
2022-08-21T02:03:51.541Z,101071.19
2022-08-21T02:08:53.666Z,101072.19
2022-08-21T02:13:55.526Z,101072.28
2022-08-21T02:18:57.307Z,101067.75
2022-08-21T02:23:59.334Z,101068.25
2022-08-21T02:29:02.528Z,101075.09
2022-08-21T02:34:04.341Z,101074.88
2022-08-21T02:39:06.317Z,101074.88
2022-08-21T02:44:08.057Z,101072.66
2022-08-21T02:49:09.978Z,101067.75
2022-08-21T02:54:12.115Z,101058.72
2022-08-21T02:59:14.095Z,101056.75
2022-08-21T03:04:16.261Z,101057.38
2022-08-21T03:09:18.202Z,101056.75
2022-08-21T03:14:20.293Z,101064.81
2022-08-21T03:19:22.105Z,101055.16
2022-08-21T03:24:24.159Z,101053.94
2022-08-21T03:29:26.120Z,101060.19
2022-08-21T03:34:28.099Z,101068.88
2022-08-21T03:39:30.055Z,101063.97
2022-08-21T03:44:32.769Z,101073.63
2022-08-21T03:49:34.791Z,101078.16
2022-08-21T03:54:36.910Z,101076.69
2022-08-21T03:59:40.382Z,101084.03
2022-08-21T04:04:42.561Z,101075.59
2022-08-21T04:09:44.905Z,101076.81
2022-08-21T04:14:47.001Z,101079.28
2022-08-21T04:19:53.177Z,101083.88
2022-08-21T04:24:56.216Z,101090.63
2022-08-21T04:29:58.032Z,101079.50
2022-08-21T04:35:02.375Z,101089.41
2022-08-21T04:40:06.750Z,101088.56
2022-08-21T04:45:09.516Z,101083.88
2022-08-21T04:50:11.413Z,101097.00
2022-08-21T04:55:13.641Z,101089.28
2022-08-21T05:00:16.304Z,101090.38
2022-08-21T05:05:18.467Z,101092.59
2022-08-21T05:10:20.846Z,101092.97
2022-08-21T05:15:22.986Z,101092.69
2022-08-21T05:20:25.239Z,101089.91
2022-08-21T05:25:28.159Z,101082.44
2022-08-21T05:30:30.563Z,101095.75
2022-08-21T05:35:33.841Z,101091.72
2022-08-21T05:40:35.826Z,101092.34
2022-08-21T05:45:42.582Z,101092.09
2022-08-21T05:50:47.422Z,101087.69
2022-08-21T05:55:49.939Z,101087.31
2022-08-21T06:00:52.880Z,101096.63
2022-08-21T06:05:54.963Z,101098.34
2022-08-21T06:10:59.715Z,101095.38
2022-08-21T06:16:16.006Z,101100.44
2022-08-21T06:21:18.591Z,101109.84
2022-08-21T06:26:21.312Z,101116.31
2022-08-21T06:31:26.056Z,101108.88
2022-08-21T06:36:28.097Z,101114.75
2022-08-21T06:41:30.674Z,101114.38
2022-08-21T06:46:40.914Z,101115.09
2022-08-21T06:51:42.895Z,101114.25
2022-08-21T06:56:44.836Z,101113.16
2022-08-21T07:01:47.627Z,101127.59
2022-08-21T07:06:49.949Z,101127.97
2022-08-21T07:11:54.775Z,101137.50
2022-08-21T07:16:56.791Z,101133.31
2022-08-21T07:22:01.520Z,101125.63
2022-08-21T07:27:05.197Z,101126.94
2022-08-21T07:32:09.960Z,101131.00
2022-08-21T07:37:11.798Z,101124.41
2022-08-21T07:42:13.754Z,101116.97
2022-08-21T07:47:15.547Z,101106.69
2022-08-21T07:52:17.413Z,101104.00
2022-08-21T07:57:19.281Z,101115.84
2022-08-21T08:02:29.365Z,101109.84
2022-08-21T08:07:31.177Z,101115.09
2022-08-21T08:12:32.959Z,101105.97
2022-08-21T08:17:34.926Z,101103.75
2022-08-21T08:22:39.011Z,101102.75
2022-08-21T08:27:41.334Z,101093.94
2022-08-21T08:32:43.672Z,101080.97
2022-08-21T08:37:47.942Z,101077.81
2022-08-21T08:42:54.815Z,101081.34
2022-08-21T08:48:03.676Z,101078.75
2022-08-21T08:53:11.761Z,101075.97
2022-08-21T08:58:20.555Z,101072.75
2022-08-21T09:03:24.618Z,101064.19
2022-08-21T09:08:26.593Z,101064.09
2022-08-21T09:13:48.577Z,101062.72
2022-08-21T09:18:55.606Z,101062.00
2022-08-21T09:24:16.018Z,101066.78
2022-08-21T09:29:21.946Z,101056.63
2022-08-21T09:34:32.469Z,101071.06
2022-08-21T09:39:43.547Z,101052.47
2022-08-21T09:44:48.649Z,101048.06
2022-08-21T09:49:50.557Z,101047.94
2022-08-21T09:54:55.644Z,101047.94
2022-08-21T10:00:08.199Z,101052.59
2022-08-21T10:05:24.082Z,101049.91
2022-08-21T10:10:37.289Z,101050.28
2022-08-21T10:16:00.015Z,101044.53
2022-08-21T10:21:26.230Z,101039.38
2022-08-21T10:27:10.039Z,101024.81
2022-08-21T10:32:25.990Z,101021.41
2022-08-21T10:37:37.328Z,101036.56
2022-08-21T10:42:42.267Z,101031.31
2022-08-21T10:47:50.041Z,101032.41
2022-08-21T10:53:04.769Z,101023.38
2022-08-21T10:58:18.813Z,101034.84
2022-08-21T11:03:39.168Z,101036.94
2022-08-21T11:08:44.713Z,101036.44
2022-08-21T11:14:00.486Z,101021.19
2022-08-21T11:19:31.694Z,101023.00
2022-08-21T11:24:40.169Z,101019.19
2022-08-21T11:29:45.358Z,101017.84
2022-08-21T11:34:50.250Z,101014.78
2022-08-21T11:40:03.632Z,101012.34
2022-08-21T11:45:34.651Z,101020.41
2022-08-21T11:50:39.662Z,101009.41
2022-08-21T11:55:56.349Z,101012.97
2022-08-21T12:01:04.799Z,100999.25
2022-08-21T12:06:13.273Z,101007.09
2022-08-21T12:11:18.343Z,100998.59
2022-08-21T12:16:34.507Z,101008.19
2022-08-21T12:21:49.483Z,101004.38
2022-08-21T12:26:57.545Z,101001.09
2022-08-21T12:32:20.292Z,101006.69
2022-08-21T12:37:42.329Z,100988.44
2022-08-21T12:42:58.719Z,100994.34
2022-08-21T12:48:26.355Z,101000.94
2022-08-21T12:53:46.104Z,100996.28
2022-08-21T12:58:54.757Z,100999.09
2022-08-21T13:04:04.338Z,100996.28
2022-08-21T13:09:11.003Z,100988.22
2022-08-21T13:14:22.346Z,100984.28
2022-08-21T13:19:25.186Z,100989.69
2022-08-21T13:24:42.539Z,100982.56
2022-08-21T13:29:44.978Z,100985.41
2022-08-21T13:34:56.165Z,100984.41
2022-08-21T13:39:58.179Z,100976.44
2022-08-21T13:45:00.096Z,100975.00
2022-08-21T13:50:02.230Z,100977.19
2022-08-21T13:55:14.743Z,100982.31
2022-08-21T14:00:27.398Z,100975.81
2022-08-21T14:05:32.669Z,100978.31
2022-08-21T14:10:41.589Z,100971.31
2022-08-21T14:15:44.819Z,100961.16
2022-08-21T14:20:47.410Z,100957.75
2022-08-21T14:25:49.540Z,100956.50
2022-08-21T14:30:51.676Z,100952.97
2022-08-21T14:35:55.829Z,100946.25
2022-08-21T14:41:05.116Z,100959.59
2022-08-21T14:46:06.944Z,100955.31
2022-08-21T14:51:08.819Z,100951.63
2022-08-21T14:56:11.193Z,100965.94
2022-08-21T15:01:14.945Z,100959.31
2022-08-21T15:06:18.872Z,100956.63
2022-08-21T15:11:41.478Z,100953.72
2022-08-21T15:16:44.456Z,100950.50
2022-08-21T15:21:46.608Z,100958.59
2022-08-21T15:26:49.350Z,100952.75
2022-08-21T15:31:57.770Z,100958.22
2022-08-21T15:37:00.128Z,100953.44
2022-08-21T15:42:10.996Z,100961.66
2022-08-21T15:47:18.990Z,100960.28
2022-08-21T15:52:22.802Z,100965.69
2022-08-21T15:57:26.190Z,100968.16
2022-08-21T16:02:32.168Z,100967.06
2022-08-21T16:07:34.125Z,100962.16
2022-08-21T16:12:43.403Z,100958.97
2022-08-21T16:17:50.003Z,100960.94
2022-08-21T16:22:53.026Z,100964.03
2022-08-21T16:28:00.216Z,100955.94
2022-08-21T16:33:04.130Z,100957.03
2022-08-21T16:38:06.400Z,100959.09
2022-08-21T16:43:08.576Z,100947.47
2022-08-21T16:48:10.955Z,100950.28
2022-08-21T16:53:12.914Z,100946.97
2022-08-21T16:58:34.236Z,100936.72
2022-08-21T17:03:42.502Z,100947.22
2022-08-21T17:08:45.197Z,100948.78
2022-08-21T17:13:47.490Z,100944.13
2022-08-21T17:18:51.946Z,100943.22
2022-08-21T17:23:57.218Z,100938.78
2022-08-21T17:28:59.645Z,100941.47
2022-08-21T17:34:01.623Z,100941.47
2022-08-21T17:39:04.975Z,100952.25
2022-08-21T17:44:11.701Z,100946.97
2022-08-21T17:49:16.405Z,100947.72
2022-08-21T17:54:18.485Z,100941.81
2022-08-21T17:59:20.640Z,100940.25
2022-08-21T18:04:22.460Z,100934.25
2022-08-21T18:09:28.399Z,100931.22
2022-08-21T18:14:34.280Z,100925.84
2022-08-21T18:19:36.622Z,100937.44
2022-08-21T18:24:50.760Z,100931.09
2022-08-21T18:29:56.520Z,100937.44
2022-08-21T18:35:00.840Z,100938.03
2022-08-21T18:40:03.741Z,100928.75
2022-08-21T18:45:08.924Z,100936.72
2022-08-21T18:50:14.927Z,100938.41
2022-08-21T18:55:20.741Z,100951.63
2022-08-21T19:00:27.195Z,100948.06
2022-08-21T19:05:29.130Z,100951.47
2022-08-21T19:10:30.981Z,100965.94
2022-08-21T19:15:36.319Z,100961.53
2022-08-21T19:20:41.788Z,100969.47
2022-08-21T19:25:51.792Z,100960.56
2022-08-21T19:31:00.633Z,100974.03
2022-08-21T19:36:05.605Z,100974.88
2022-08-21T19:41:12.121Z,100986.38
2022-08-21T19:46:20.486Z,100989.69
2022-08-21T19:51:23.449Z,100992.59
2022-08-21T19:56:28.150Z,100981.09
2022-08-21T20:01:30.545Z,100985.53
2022-08-21T20:06:35.197Z,100983.28
2022-08-21T20:11:41.121Z,100982.56
2022-08-21T20:16:43.461Z,100985.53
2022-08-21T20:21:45.619Z,100998.97
2022-08-21T20:26:49.652Z,100989.78
2022-08-21T20:31:51.971Z,100993.34
2022-08-21T20:36:53.967Z,100995.72
2022-08-21T20:41:57.076Z,100992.75
2022-08-21T20:47:01.155Z,100996.44
2022-08-21T20:52:13.472Z,100990.31
2022-08-21T20:57:22.349Z,100986.97
2022-08-21T21:02:45.941Z,100986.88
2022-08-21T21:07:56.962Z,100985.53
2022-08-21T21:13:17.526Z,100985.25
2022-08-21T21:18:35.306Z,100981.47
2022-08-21T21:24:22.644Z,100980.13
2022-08-21T21:29:39.664Z,100986.50
2022-08-21T21:34:45.416Z,100987.75
2022-08-21T21:39:52.087Z,100989.91
2022-08-21T21:45:03.394Z,100989.56
2022-08-21T21:50:18.778Z,100990.78
2022-08-21T21:55:40.983Z,101001.06
2022-08-21T22:00:52.380Z,100997.41
2022-08-21T22:05:57.772Z,100993.72
2022-08-21T22:11:08.934Z,100997.63
2022-08-21T22:16:26.661Z,100998.38
2022-08-21T22:21:33.981Z,100998.00
2022-08-21T22:26:50.817Z,100991.28
2022-08-21T22:32:21.918Z,100995.09
2022-08-21T22:37:35.071Z,100990.94
2022-08-21T22:42:37.058Z,100984.44
2022-08-21T22:47:43.988Z,100992.75
2022-08-21T22:52:49.496Z,100991.13
2022-08-21T22:58:11.755Z,100989.22
2022-08-21T23:03:33.800Z,100987.25
2022-08-21T23:08:39.010Z,100989.09
2022-08-21T23:13:44.884Z,100986.03
2022-08-21T23:19:23.927Z,100977.72
2022-08-21T23:24:28.772Z,100987.75
2022-08-21T23:29:51.646Z,100983.81
2022-08-21T23:35:07.500Z,100987.50
2022-08-21T23:40:11.325Z,100986.88
2022-08-21T23:45:19.390Z,100983.81
2022-08-21T23:50:32.577Z,100975.50
2022-08-21T23:55:40.131Z,100969.41
